Time;durP1;ratioP1;P1;durP2;ratioP2;P2;SDS_P1;SDS_P2;PMS_P1;PMS_P2;Temp;Humidity;BMP_temperature;BMP_pressure;BME280_temperature;BME280_humidity;BME280_pressure;Samples;Min_cycle;Max_cycle;Signal;HPM_P1;HPM_P2
2022/12/05 00:01:14;;;;;;;27.20;13.13;;;4.00;99.90;;;;;;5093203;28;20082;-82
2022/12/05 00:03:41;;;;;;;27.77;12.98;;;4.10;99.90;;;;;;5110396;28;20082;-82
2022/12/05 00:06:07;;;;;;;26.00;12.93;;;4.40;99.90;;;;;;5110094;28;20063;-83
2022/12/05 00:08:34;;;;;;;27.70;13.25;;;4.50;99.90;;;;;;5093332;28;20056;-83
2022/12/05 00:11:01;;;;;;;23.55;12.48;;;4.10;99.90;;;;;;5093119;28;20043;-82
2022/12/05 00:13:28;;;;;;;26.15;13.02;;;4.10;99.90;;;;;;5093055;28;20040;-82
2022/12/05 00:15:54;;;;;;;26.42;12.68;;;4.20;99.90;;;;;;5076522;28;20036;-83
2022/12/05 00:18:21;;;;;;;26.63;13.10;;;4.20;99.90;;;;;;5093148;28;20062;-82
2022/12/05 00:20:48;;;;;;;25.20;12.07;;;4.30;99.90;;;;;;5059790;28;20044;-82
2022/12/05 00:23:15;;;;;;;26.23;13.45;;;4.30;99.90;;;;;;5076001;28;20101;-82
2022/12/05 00:25:41;;;;;;;27.15;13.40;;;5.00;99.90;;;;;;5092849;28;20040;-82
2022/12/05 00:28:08;;;;;;;29.42;13.70;;;4.30;99.90;;;;;;5092844;28;20112;-82
2022/12/05 00:30:38;;;;;;;30.15;13.57;;;4.30;99.90;;;;;;5091664;28;20040;-82
2022/12/05 00:33:05;;;;;;;25.15;13.38;;;4.30;99.90;;;;;;5076080;28;20122;-82
2022/12/05 00:35:33;;;;;;;25.92;12.60;;;5.10;99.90;;;;;;5059349;28;20127;-82
2022/12/05 00:37:59;;;;;;;29.40;14.10;;;4.30;99.90;;;;;;5092776;28;20036;-82
2022/12/05 00:40:26;;;;;;;28.02;14.10;;;4.30;99.90;;;;;;5092405;28;20043;-82
2022/12/05 00:42:53;;;;;;;27.45;14.07;;;4.40;99.90;;;;;;5075694;28;20036;-82
2022/12/05 00:45:20;;;;;;;30.00;14.23;;;4.30;99.90;;;;;;5092132;28;20449;-82
2022/12/05 00:47:47;;;;;;;30.42;14.23;;;4.30;99.90;;;;;;5059417;28;20047;-82
2022/12/05 00:50:13;;;;;;;25.70;13.02;;;4.40;99.90;;;;;;5059695;28;20487;-82
2022/12/05 00:52:40;;;;;;;30.45;14.60;;;4.40;99.90;;;;;;5076051;28;20058;-82
2022/12/05 00:55:07;;;;;;;31.13;14.65;;;4.50;99.90;;;;;;5058846;28;20098;-82
2022/12/05 00:57:34;;;;;;;28.48;14.40;;;4.40;99.90;;;;;;5056031;28;20044;-83
2022/12/05 01:00:01;;;;;;;26.63;14.20;;;4.40;99.90;;;;;;5056188;28;20571;-83
2022/12/05 01:02:29;;;;;;;31.40;14.45;;;4.40;99.90;;;;;;5088980;28;20119;-82
2022/12/05 01:04:55;;;;;;;27.75;14.30;;;4.40;99.90;;;;;;5092484;28;20044;-82
2022/12/05 01:07:22;;;;;;;28.17;14.95;;;5.00;99.90;;;;;;5075642;28;20056;-82
2022/12/05 01:09:49;;;;;;;31.48;14.95;;;4.90;99.90;;;;;;5076076;28;20099;-82
2022/12/05 01:12:16;;;;;;;26.90;13.82;;;4.40;99.90;;;;;;5093220;28;20460;-83
2022/12/05 01:14:42;;;;;;;27.05;13.93;;;4.40;99.90;;;;;;5091895;28;20040;-82
2022/12/05 01:17:09;;;;;;;28.73;14.15;;;4.40;99.90;;;;;;5075805;28;20040;-82
2022/12/05 01:19:36;;;;;;;28.52;13.10;;;4.40;99.90;;;;;;5059437;28;20028;-82
2022/12/05 01:22:02;;;;;;;28.45;13.48;;;5.00;99.90;;;;;;5092519;28;20040;-83
2022/12/05 01:24:29;;;;;;;27.40;13.95;;;4.80;99.90;;;;;;5059688;28;20040;-82
2022/12/05 01:26:57;;;;;;;27.05;13.40;;;4.90;99.90;;;;;;5075599;28;20036;-82
2022/12/05 01:29:24;;;;;;;27.75;13.93;;;4.50;99.90;;;;;;5108848;28;20043;-82
2022/12/05 01:31:51;;;;;;;25.33;13.23;;;4.50;99.90;;;;;;5075516;28;20443;-82
2022/12/05 01:34:18;;;;;;;26.02;13.48;;;4.60;99.90;;;;;;5059416;28;20036;-83
2022/12/05 01:36:45;;;;;;;27.48;13.48;;;4.60;99.90;;;;;;5092084;28;20055;-82
2022/12/05 01:39:13;;;;;;;25.33;12.23;;;4.60;99.90;;;;;;5075473;28;20097;-83
2022/12/05 01:41:43;;;;;;;22.35;12.55;;;4.60;99.90;;;;;;5109007;28;20127;-83
2022/12/05 01:44:10;;;;;;;23.52;12.98;;;4.60;99.90;;;;;;5096141;28;20102;-83
2022/12/05 01:46:42;;;;;;;25.65;12.93;;;4.60;99.90;;;;;;5096470;28;20083;-82
2022/12/05 01:49:17;;;;;;;27.77;13.20;;;4.60;99.90;;;;;;5096009;28;20040;-81
2022/12/05 01:51:50;;;;;;;25.85;12.07;;;4.70;99.90;;;;;;5095932;28;20446;-82
2022/12/05 01:54:19;;;;;;;27.40;12.77;;;4.70;99.90;;;;;;5096394;28;20490;-83
2022/12/05 01:56:51;;;;;;;22.15;11.43;;;4.70;99.90;;;;;;5112730;28;20040;-82
2022/12/05 01:59:21;;;;;;;22.27;11.55;;;5.10;99.90;;;;;;5112845;28;20089;-82
2022/12/05 02:01:47;;;;;;;21.95;11.52;;;4.70;99.90;;;;;;5095568;28;20104;-82
2022/12/05 02:04:14;;;;;;;21.23;10.95;;;4.70;99.90;;;;;;5062749;28;20040;-82
2022/12/05 02:06:42;;;;;;;19.88;11.10;;;4.80;99.90;;;;;;5075990;28;20039;-82
2022/12/05 02:09:08;;;;;;;19.77;10.98;;;4.80;99.90;;;;;;5112338;28;20444;-82
2022/12/05 02:11:50;;;;;;;18.40;9.90;;;4.70;99.90;;;;;;5079252;28;20131;-83
2022/12/05 02:14:52;;;;;;;17.25;9.55;;;4.70;99.90;;;;;;5112336;28;20548;-82
2022/12/05 02:17:30;;;;;;;17.73;9.85;;;4.80;99.90;;;;;;5093308;28;20083;-81
2022/12/05 02:20:02;;;;;;;16.90;9.55;;;4.80;99.90;;;;;;5095405;28;20051;-83
2022/12/05 02:22:57;;;;;;;18.45;9.70;;;4.70;99.90;;;;;;5111780;28;20044;-82
2022/12/05 02:25:45;;;;;;;16.10;8.98;;;4.80;99.90;;;;;;5095290;28;20055;-82
2022/12/05 02:28:53;;;;;;;18.35;8.75;;;4.70;99.90;;;;;;5094955;28;20051;-82
2022/12/05 02:31:52;;;;;;;19.88;9.80;;;4.70;99.90;;;;;;5094705;28;20561;-82
2022/12/05 02:34:30;;;;;;;18.77;9.32;;;4.70;99.90;;;;;;5094913;28;20044;-82
2022/12/05 02:37:07;;;;;;;23.50;9.98;;;4.70;99.90;;;;;;5095298;28;20032;-83
2022/12/05 02:39:51;;;;;;;16.98;8.88;;;4.70;99.90;;;;;;5111100;28;20040;-82
2022/12/05 02:42:27;;;;;;;16.58;8.98;;;4.80;99.90;;;;;;5112017;28;20790;-82
2022/12/05 02:45:00;;;;;;;14.02;7.80;;;4.80;99.90;;;;;;5094940;28;20095;-83
2022/12/05 02:47:30;;;;;;;18.40;8.93;;;5.20;99.90;;;;;;5095343;28;20079;-82
2022/12/05 02:49:58;;;;;;;15.85;7.90;;;4.70;99.90;;;;;;5094868;28;20113;-82
2022/12/05 02:52:26;;;;;;;15.70;7.70;;;4.70;99.90;;;;;;5078464;28;20537;-82
2022/12/05 02:54:55;;;;;;;14.15;7.65;;;4.70;99.90;;;;;;5093413;28;20097;-83
2022/12/05 02:57:23;;;;;;;17.70;8.00;;;4.80;99.90;;;;;;5078320;28;20046;-82
2022/12/05 02:59:50;;;;;;;14.43;8.55;;;4.70;99.90;;;;;;5078206;28;20040;-82
2022/12/05 03:02:31;;;;;;;14.63;8.02;;;4.70;99.90;;;;;;5094765;28;20484;-83
2022/12/05 03:05:13;;;;;;;14.35;7.63;;;5.00;99.90;;;;;;5094369;28;20404;-83
2022/12/05 03:07:41;;;;;;;16.05;8.07;;;4.70;99.90;;;;;;5094950;28;20077;-82
2022/12/05 03:10:09;;;;;;;14.93;7.63;;;5.60;99.90;;;;;;5077778;28;20612;-83
2022/12/05 03:12:42;;;;;;;16.17;7.85;;;4.70;99.90;;;;;;5094263;28;20120;-83
2022/12/05 03:15:16;;;;;;;16.23;8.55;;;5.10;99.90;;;;;;5094307;28;20123;-83
2022/12/05 03:17:55;;;;;;;13.75;7.72;;;4.80;99.90;;;;;;5094762;28;20072;-83
2022/12/05 03:20:31;;;;;;;15.00;7.25;;;4.90;99.90;;;;;;5110866;28;20446;-83
2022/12/05 03:23:21;;;;;;;14.40;7.50;;;4.80;99.90;;;;;;5093803;28;20040;-83
2022/12/05 03:26:16;;;;;;;12.65;7.18;;;4.70;99.90;;;;;;5103323;28;20044;-83
2022/12/05 03:28:58;;;;;;;16.13;7.40;;;4.70;99.90;;;;;;5094021;28;20098;-83
2022/12/05 03:31:43;;;;;;;14.10;7.13;;;4.70;99.90;;;;;;5094068;28;20040;-83
2022/12/05 03:34:19;;;;;;;13.13;6.70;;;4.90;99.90;;;;;;5093886;28;20040;-83
2022/12/05 03:36:51;;;;;;;11.20;6.15;;;4.80;99.90;;;;;;5093851;28;20115;-83
2022/12/05 03:39:29;;;;;;;12.40;6.47;;;4.80;99.90;;;;;;5093977;28;20484;-83
2022/12/05 03:42:10;;;;;;;15.02;6.57;;;4.70;99.90;;;;;;5094031;28;20130;-83
2022/12/05 03:45:01;;;;;;;13.40;6.45;;;4.70;99.90;;;;;;5093724;28;20032;-83
2022/12/05 03:47:41;;;;;;;13.48;5.90;;;4.80;99.90;;;;;;5093877;28;20093;-83
2022/12/05 03:50:28;;;;;;;11.65;6.05;;;4.80;99.90;;;;;;5093480;28;20043;-83
2022/12/05 03:53:04;;;;;;;10.18;6.13;;;4.70;99.90;;;;;;5093679;28;20089;-83
2022/12/05 03:55:34;;;;;;;11.18;5.95;;;4.70;99.90;;;;;;5093635;28;20040;-83
2022/12/05 03:58:06;;;;;;;11.30;6.00;;;4.70;99.90;;;;;;5093536;28;20036;-83
2022/12/05 04:00:39;;;;;;;9.80;5.32;;;4.80;99.90;;;;;;5093537;28;20090;-83
2022/12/05 04:03:44;;;;;;;9.88;5.75;;;4.70;99.90;;;;;;5093383;28;20568;-83
2022/12/05 04:06:42;;;;;;;13.07;5.47;;;5.50;99.90;;;;;;5038757;28;20040;-83
2022/12/05 04:09:18;;;;;;;11.68;5.72;;;4.70;99.90;;;;;;5089161;28;20105;-83
2022/12/05 04:11:50;;;;;;;12.23;5.50;;;5.20;99.90;;;;;;5110059;28;20531;-83
2022/12/05 04:14:41;;;;;;;8.55;4.95;;;4.70;99.90;;;;;;5093556;28;20040;-83
2022/12/05 04:17:50;;;;;;;10.13;5.53;;;4.70;99.90;;;;;;5093055;28;20036;-83
2022/12/05 04:23:11;;;;;;;9.15;5.55;;;4.70;99.90;;;;;;5108428;28;20484;-84
2022/12/05 04:26:17;;;;;;;12.15;5.60;;;4.70;99.90;;;;;;5076511;28;20131;-83
2022/12/05 04:29:02;;;;;;;9.07;4.88;;;4.70;99.90;;;;;;5092945;28;20126;-83
2022/12/05 04:31:38;;;;;;;9.15;5.03;;;4.70;99.90;;;;;;5093155;28;20040;-83
2022/12/05 04:34:09;;;;;;;9.75;4.60;;;4.70;99.90;;;;;;5072690;28;20067;-83
2022/12/05 04:36:43;;;;;;;7.18;4.45;;;4.70;99.90;;;;;;5072918;28;20044;-84
2022/12/05 04:39:20;;;;;;;8.37;5.10;;;4.70;99.90;;;;;;5072934;28;20040;-83
2022/12/05 04:42:15;;;;;;;9.40;5.05;;;4.70;99.90;;;;;;5089502;28;20298;-83
2022/12/05 04:44:56;;;;;;;9.18;4.80;;;4.90;99.90;;;;;;5071010;28;20385;-83
2022/12/05 04:47:29;;;;;;;8.85;4.53;;;4.80;99.90;;;;;;5099457;28;20032;-84
2022/12/05 04:49:59;;;;;;;7.35;4.68;;;5.30;99.90;;;;;;5109403;28;20124;-84
2022/12/05 04:52:27;;;;;;;11.50;5.07;;;4.80;99.90;;;;;;5109174;28;20238;-83
2022/12/05 04:55:11;;;;;;;9.02;4.82;;;4.70;99.90;;;;;;5092727;28;20491;-84
2022/12/05 04:57:50;;;;;;;10.45;4.85;;;4.70;99.90;;;;;;5093192;28;20569;-84
2022/12/05 05:00:17;;;;;;;7.82;4.50;;;4.70;99.90;;;;;;5109414;28;20399;-83
2022/12/05 05:02:50;;;;;;;9.68;4.78;;;4.70;99.90;;;;;;5109228;28;20043;-83
2022/12/05 05:05:19;;;;;;;7.88;4.50;;;4.70;99.90;;;;;;5092484;28;20089;-84
2022/12/05 05:07:49;;;;;;;9.52;4.78;;;4.90;99.90;;;;;;5092494;28;20059;-84
2022/12/05 05:10:52;;;;;;;10.68;4.80;;;4.70;99.90;;;;;;5109205;28;20052;-84
2022/12/05 05:13:19;;;;;;;8.35;4.90;;;4.80;99.90;;;;;;5059438;28;20554;-84
2022/12/05 05:15:46;;;;;;;9.05;4.97;;;4.80;99.90;;;;;;5092859;28;20044;-84
2022/12/05 05:18:12;;;;;;;8.95;4.80;;;4.70;99.90;;;;;;5062241;28;20078;-84
2022/12/05 05:20:39;;;;;;;10.00;5.22;;;4.80;99.90;;;;;;5080031;28;20046;-84
2022/12/05 05:23:06;;;;;;;12.27;4.97;;;5.00;99.90;;;;;;5079968;28;20040;-84
2022/12/05 05:25:32;;;;;;;8.65;4.90;;;4.90;99.90;;;;;;5080052;28;20109;-85
2022/12/05 05:27:59;;;;;;;9.73;4.45;;;4.80;99.90;;;;;;5079639;28;20122;-84
2022/12/05 05:30:26;;;;;;;9.82;4.97;;;5.40;99.90;;;;;;5063484;28;20043;-84
2022/12/05 05:32:53;;;;;;;8.38;4.65;;;4.70;99.90;;;;;;5096387;28;20097;-84
2022/12/05 05:35:20;;;;;;;8.80;4.70;;;4.80;99.90;;;;;;5062912;28;20046;-84
2022/12/05 05:37:47;;;;;;;10.60;5.35;;;4.80;99.90;;;;;;5096664;28;20040;-84
2022/12/05 05:40:14;;;;;;;10.63;4.97;;;5.10;99.90;;;;;;5096070;28;20039;-84
2022/12/05 05:42:45;;;;;;;10.93;5.30;;;4.80;99.90;;;;;;5079639;28;20036;-84
2022/12/05 05:45:13;;;;;;;10.90;5.40;;;4.80;99.90;;;;;;5079710;28;20075;-84
2022/12/05 05:47:40;;;;;;;12.30;5.47;;;5.10;99.90;;;;;;5096415;28;20500;-84
2022/12/05 05:50:08;;;;;;;10.93;5.30;;;4.80;99.90;;;;;;5079580;28;20098;-84
2022/12/05 05:52:36;;;;;;;9.52;5.65;;;4.80;99.90;;;;;;5079780;28;20045;-84
2022/12/05 05:55:05;;;;;;;9.43;5.00;;;4.80;99.90;;;;;;5095932;28;20056;-84
2022/12/05 05:57:32;;;;;;;10.65;5.40;;;4.70;99.90;;;;;;5079839;28;20123;-84
2022/12/05 05:59:59;;;;;;;11.13;5.43;;;4.90;99.90;;;;;;5095802;28;20119;-83
2022/12/05 06:02:31;;;;;;;11.27;5.43;;;5.30;99.90;;;;;;5096012;28;20507;-83
2022/12/05 06:04:58;;;;;;;11.07;5.15;;;4.80;99.90;;;;;;5079409;28;20036;-84
2022/12/05 06:07:24;;;;;;;10.75;5.18;;;4.70;99.90;;;;;;5079082;28;20411;-84
2022/12/05 06:09:51;;;;;;;12.77;5.32;;;5.10;99.90;;;;;;5079056;28;20051;-84
2022/12/05 06:12:18;;;;;;;11.88;5.70;;;4.80;99.90;;;;;;5062438;28;20119;-84
2022/12/05 06:14:47;;;;;;;8.68;4.80;;;4.70;99.90;;;;;;5062497;28;20457;-84
2022/12/05 06:17:14;;;;;;;10.88;5.35;;;4.70;99.90;;;;;;5094970;28;20454;-84
2022/12/05 06:19:41;;;;;;;9.48;5.38;;;4.90;99.90;;;;;;5111772;28;20062;-84
2022/12/05 06:22:08;;;;;;;11.13;5.60;;;4.70;99.90;;;;;;5096017;28;20480;-83
2022/12/05 06:24:35;;;;;;;11.73;5.13;;;5.20;99.90;;;;;;5080061;28;20074;-84
2022/12/05 06:27:01;;;;;;;11.23;5.63;;;4.70;99.90;;;;;;5078896;28;20035;-84
2022/12/05 06:29:28;;;;;;;11.25;4.78;;;4.80;99.90;;;;;;5077896;28;20036;-84
2022/12/05 06:31:55;;;;;;;9.88;4.93;;;4.70;99.90;;;;;;5062380;28;20047;-84
2022/12/05 06:34:21;;;;;;;10.10;5.30;;;4.80;99.90;;;;;;5078626;28;20105;-83
2022/12/05 06:36:48;;;;;;;13.50;5.35;;;4.90;99.90;;;;;;5095245;28;20059;-84
2022/12/05 06:39:15;;;;;;;8.70;4.97;;;5.00;99.90;;;;;;5078522;28;20072;-84
2022/12/05 06:41:41;;;;;;;8.00;4.68;;;4.90;99.90;;;;;;5062182;28;20044;-84
2022/12/05 06:44:08;;;;;;;9.55;4.82;;;4.90;99.90;;;;;;5062094;28;20042;-83
2022/12/05 06:46:38;;;;;;;11.40;5.15;;;4.80;99.90;;;;;;5095787;28;20036;-83
2022/12/05 06:49:05;;;;;;;13.32;5.45;;;5.70;99.90;;;;;;5078718;28;20046;-83
2022/12/05 06:51:32;;;;;;;11.38;5.45;;;5.00;99.90;;;;;;5095293;28;20460;-83
2022/12/05 06:53:58;;;;;;;12.73;4.90;;;4.80;99.90;;;;;;5097886;28;20123;-84
2022/12/05 06:56:25;;;;;;;9.55;5.60;;;4.80;99.90;;;;;;5094872;28;20047;-83
2022/12/05 06:58:52;;;;;;;12.02;5.93;;;4.70;99.90;;;;;;5061958;28;20119;-83
2022/12/05 07:04:09;;;;;;;12.60;5.85;;;4.70;99.90;;;;;;5111280;28;20483;-82
2022/12/05 07:06:36;;;;;;;11.65;5.72;;;4.70;99.90;;;;;;5094904;28;20509;-84
2022/12/05 07:09:04;;;;;;;12.32;6.32;;;5.00;99.90;;;;;;5078031;28;20060;-83
2022/12/05 07:11:31;;;;;;;15.35;6.53;;;4.70;99.90;;;;;;5077568;28;20039;-84
2022/12/05 07:13:57;;;;;;;10.50;6.10;;;4.70;99.90;;;;;;5077981;28;20071;-84
2022/12/05 07:16:24;;;;;;;16.58;6.50;;;4.80;99.90;;;;;;5077603;28;20043;-84
2022/12/05 07:18:51;;;;;;;16.42;7.10;;;4.70;99.90;;;;;;5077949;28;20040;-84
2022/12/05 07:21:20;;;;;;;15.40;6.50;;;4.70;99.90;;;;;;5077523;28;20036;-84
2022/12/05 07:23:48;;;;;;;11.82;6.25;;;4.70;99.90;;;;;;5077732;28;20472;-83
2022/12/05 07:26:19;;;;;;;12.98;6.45;;;5.10;99.90;;;;;;5092412;28;20063;-83
2022/12/05 07:28:46;;;;;;;14.35;6.60;;;4.70;99.90;;;;;;5115490;28;20083;-83
2022/12/05 07:31:19;;;;;;;18.77;6.43;;;4.70;99.90;;;;;;5092501;28;20096;-83
2022/12/05 07:33:46;;;;;;;15.38;5.38;;;4.60;99.90;;;;;;5114925;28;20036;-84
2022/12/05 07:36:15;;;;;;;13.55;5.45;;;4.70;99.90;;;;;;5077125;28;20523;-84
2022/12/05 07:38:42;;;;;;;14.43;5.80;;;4.70;99.90;;;;;;5094262;28;20062;-84
2022/12/05 07:41:21;;;;;;;11.38;5.47;;;4.80;99.90;;;;;;5076822;28;20066;-83
2022/12/05 07:43:50;;;;;;;13.20;4.90;;;4.70;99.90;;;;;;5077017;28;20115;-84
2022/12/05 07:46:17;;;;;;;9.77;4.68;;;4.70;99.90;;;;;;5106088;28;20039;-83
2022/12/05 07:48:44;;;;;;;11.38;5.20;;;4.90;99.90;;;;;;5093657;28;20547;-83
2022/12/05 07:51:11;;;;;;;12.90;5.07;;;4.60;99.90;;;;;;5076684;28;20123;-82
2022/12/05 07:53:40;;;;;;;12.15;5.07;;;4.70;99.90;;;;;;5109944;28;20040;-83
2022/12/05 07:56:08;;;;;;;10.60;4.03;;;4.60;99.90;;;;;;5093064;28;20048;-82
2022/12/05 07:58:36;;;;;;;11.38;4.20;;;4.70;99.90;;;;;;5082087;28;20445;-82
2022/12/05 08:01:11;;;;;;;11.23;4.32;;;4.60;99.90;;;;;;5110082;28;20032;-82
2022/12/05 08:03:38;;;;;;;10.02;4.65;;;4.70;99.90;;;;;;5092832;28;20556;-82
2022/12/05 08:06:08;;;;;;;9.85;4.18;;;4.60;99.90;;;;;;5093288;28;20044;-82
2022/12/05 08:08:35;;;;;;;10.82;4.18;;;4.70;99.90;;;;;;5092887;28;20519;-82
2022/12/05 08:11:09;;;;;;;8.73;3.50;;;4.70;99.90;;;;;;5062501;28;20040;-82
2022/12/05 08:13:36;;;;;;;10.95;3.25;;;4.70;99.90;;;;;;5109770;28;20044;-82
2022/12/05 08:16:05;;;;;;;11.10;3.58;;;5.00;99.90;;;;;;5075874;28;20048;-82
2022/12/05 08:18:32;;;;;;;11.32;3.70;;;4.70;99.90;;;;;;5092270;28;20032;-82
2022/12/05 08:21:07;;;;;;;11.27;3.90;;;4.70;99.90;;;;;;5092374;28;20036;-82
2022/12/05 08:23:34;;;;;;;7.18;3.45;;;4.70;99.90;;;;;;5109133;28;20040;-82
2022/12/05 08:26:10;;;;;;;8.15;3.65;;;4.70;99.90;;;;;;5093176;28;20039;-83
2022/12/05 08:28:38;;;;;;;8.70;3.92;;;4.60;99.90;;;;;;5093228;28;20044;-83
2022/12/05 08:31:07;;;;;;;15.20;5.22;;;4.70;99.90;;;;;;5087588;28;20044;-81
2022/12/05 08:33:34;;;;;;;9.80;4.15;;;4.70;99.90;;;;;;5089488;28;20262;-80
2022/12/05 08:36:02;;;;;;;9.90;4.30;;;4.70;99.90;;;;;;5073054;28;20579;-81
2022/12/05 08:38:29;;;;;;;11.13;4.40;;;4.60;99.90;;;;;;5072644;28;20036;-81
2022/12/05 08:40:56;;;;;;;11.98;4.55;;;5.10;99.90;;;;;;5056427;28;20090;-80
2022/12/05 08:43:22;;;;;;;10.55;4.40;;;4.70;99.90;;;;;;5068551;28;20044;-81
2022/12/05 08:45:50;;;;;;;11.32;3.90;;;4.80;99.90;;;;;;5093083;28;20040;-80
2022/12/05 08:48:18;;;;;;;12.77;4.82;;;4.70;99.90;;;;;;5092794;28;20040;-80
2022/12/05 08:50:45;;;;;;;12.70;4.32;;;4.70;99.90;;;;;;5092776;28;20126;-80
2022/12/05 08:53:11;;;;;;;9.98;4.75;;;4.70;99.90;;;;;;5108386;28;20122;-80
2022/12/05 08:55:38;;;;;;;10.57;5.13;;;4.60;99.90;;;;;;5075845;28;20043;-81
2022/12/05 08:58:05;;;;;;;11.07;4.50;;;4.70;99.90;;;;;;5109309;28;20080;-80
2022/12/05 09:00:32;;;;;;;9.20;4.13;;;4.70;99.90;;;;;;5092357;28;20531;-80
2022/12/05 09:02:58;;;;;;;10.68;4.13;;;5.30;99.90;;;;;;5092518;28;20071;-80
2022/12/05 09:05:25;;;;;;;9.32;4.60;;;4.60;99.90;;;;;;5092580;28;20097;-80
2022/12/05 09:07:52;;;;;;;10.00;4.85;;;4.60;99.90;;;;;;5092308;28;20036;-81
2022/12/05 09:10:19;;;;;;;10.80;4.03;;;4.70;99.90;;;;;;5092801;28;20845;-81
2022/12/05 09:12:45;;;;;;;9.45;4.75;;;4.70;99.90;;;;;;5075657;28;20039;-81
2022/12/05 09:15:12;;;;;;;10.10;4.47;;;4.70;99.90;;;;;;5090707;28;20040;-81
2022/12/05 09:17:39;;;;;;;8.60;4.00;;;4.70;99.90;;;;;;5091833;28;20067;-81
2022/12/05 09:20:07;;;;;;;10.18;5.57;;;4.70;99.90;;;;;;5091316;28;20698;-81
2022/12/05 09:22:34;;;;;;;12.50;4.78;;;4.70;99.90;;;;;;5080964;28;20032;-80
2022/12/05 09:25:00;;;;;;;10.98;4.57;;;4.70;99.90;;;;;;5092396;28;20040;-80
2022/12/05 09:27:28;;;;;;;11.25;5.15;;;4.60;99.90;;;;;;5059321;28;20044;-80
2022/12/05 09:29:54;;;;;;;10.38;4.47;;;4.60;99.90;;;;;;5076068;28;20130;-80
2022/12/05 09:32:21;;;;;;;9.43;4.60;;;4.60;99.90;;;;;;5092336;28;20123;-80
2022/12/05 09:34:48;;;;;;;10.40;4.63;;;4.70;99.90;;;;;;5059524;28;20094;-80
2022/12/05 09:37:16;;;;;;;16.92;4.47;;;5.00;99.90;;;;;;5092124;28;20071;-80
2022/12/05 09:39:46;;;;;;;10.13;4.45;;;4.60;99.90;;;;;;5092192;28;20039;-80
2022/12/05 09:42:22;;;;;;;11.30;4.72;;;4.80;99.90;;;;;;5075482;28;20075;-80
2022/12/05 09:45:13;;;;;;;9.63;4.18;;;4.70;99.90;;;;;;5091994;28;20512;-80
2022/12/05 09:47:59;;;;;;;9.98;4.70;;;4.70;99.90;;;;;;5108719;28;20047;-80
2022/12/05 09:50:33;;;;;;;14.93;4.95;;;5.00;99.90;;;;;;5091989;28;20381;-80
2022/12/05 09:53:12;;;;;;;9.80;4.60;;;4.70;99.90;;;;;;5108991;28;20044;-80
2022/12/05 09:56:02;;;;;;;9.10;4.25;;;4.70;99.90;;;;;;5108388;28;20040;-80
2022/12/05 09:58:41;;;;;;;10.07;4.38;;;4.70;99.90;;;;;;5091689;28;20404;-80
2022/12/05 10:01:30;;;;;;;10.48;4.45;;;4.70;99.90;;;;;;5091756;28;20381;-80
2022/12/05 10:04:33;;;;;;;9.90;4.25;;;4.70;99.90;;;;;;5093624;28;20460;-80
2022/12/05 10:07:18;;;;;;;10.05;3.75;;;4.70;99.90;;;;;;5112096;28;20558;-80
2022/12/05 10:10:09;;;;;;;7.93;3.90;;;4.70;99.90;;;;;;5111745;28;20050;-80
2022/12/05 10:13:09;;;;;;;8.13;3.67;;;4.70;99.90;;;;;;5111936;28;20561;-80
2022/12/05 10:15:44;;;;;;;7.35;3.58;;;4.80;99.90;;;;;;5112013;28;20044;-80
2022/12/05 10:18:30;;;;;;;10.10;4.10;;;4.80;99.90;;;;;;5095562;28;20063;-80
2022/12/05 10:21:16;;;;;;;;;;;4.80;99.90;;;;;;5076079;28;20155;-80
2022/12/05 10:23:54;;;;;;;9.55;3.70;;;4.80;99.90;;;;;;5102873;28;19966;-80
2022/12/05 10:26:29;;;;;;;9.20;4.00;;;4.80;99.90;;;;;;5095690;28;20079;-80
2022/12/05 10:29:00;;;;;;;7.82;3.83;;;5.10;99.90;;;;;;5094921;28;20122;-81
2022/12/05 10:31:31;;;;;;;10.30;4.50;;;4.80;99.90;;;;;;5095576;28;20047;-80
2022/12/05 10:34:03;;;;;;;7.50;4.05;;;4.80;99.90;;;;;;5095243;28;20044;-80
2022/12/05 10:36:31;;;;;;;9.00;3.70;;;5.00;99.90;;;;;;5094480;28;20414;-81
2022/12/05 10:38:58;;;;;;;9.82;3.85;;;4.80;99.90;;;;;;5078889;28;20089;-81
2022/12/05 10:41:25;;;;;;;9.15;4.18;;;4.80;99.90;;;;;;5094859;28;20032;-80
2022/12/05 10:43:52;;;;;;;8.25;3.97;;;4.80;99.90;;;;;;5095116;28;20488;-80
2022/12/05 10:46:19;;;;;;;7.65;3.83;;;4.80;99.90;;;;;;5078563;28;20040;-81
2022/12/05 10:48:45;;;;;;;9.55;4.22;;;4.80;99.90;;;;;;5078363;28;20036;-81
2022/12/05 10:51:15;;;;;;;12.85;4.30;;;4.80;99.90;;;;;;5111236;28;20043;-80
2022/12/05 10:53:50;;;;;;;9.07;4.03;;;4.80;99.90;;;;;;5094571;28;20036;-80
2022/12/05 10:56:42;;;;;;;9.45;3.72;;;4.70;99.90;;;;;;5111191;28;20050;-80
2022/12/05 10:59:15;;;;;;;7.38;3.50;;;4.70;99.90;;;;;;5094461;28;20488;-80
2022/12/05 11:01:46;;;;;;;9.63;3.92;;;4.80;99.90;;;;;;5110963;28;20050;-80
2022/12/05 11:04:42;;;;;;;12.55;4.68;;;4.70;99.90;;;;;;5111865;28;20046;-80
2022/12/05 11:07:28;;;;;;;9.25;4.20;;;4.90;99.90;;;;;;5111947;28;20052;-80
2022/12/05 11:09:56;;;;;;;8.48;3.65;;;4.70;99.90;;;;;;5110448;28;20048;-80
2022/12/05 11:12:28;;;;;;;9.60;3.80;;;4.70;99.90;;;;;;5077919;28;20097;-80
2022/12/05 11:15:15;;;;;;;7.25;3.75;;;4.70;99.90;;;;;;5093170;28;20127;-80
2022/12/05 11:17:42;;;;;;;7.95;3.45;;;4.70;99.90;;;;;;5078771;28;20119;-81
2022/12/05 11:20:18;;;;;;;8.32;3.55;;;4.80;99.90;;;;;;5086931;28;20122;-80
2022/12/05 11:22:55;;;;;;;11.38;4.35;;;4.70;99.90;;;;;;5093867;28;20040;-81
2022/12/05 11:25:35;;;;;;;12.23;3.95;;;4.80;99.90;;;;;;5111186;28;20028;-81
2022/12/05 11:28:17;;;;;;;8.35;3.63;;;4.70;99.90;;;;;;5093435;28;20507;-81
2022/12/05 11:30:55;;;;;;;6.85;3.28;;;4.80;99.90;;;;;;5109999;28;20498;-80
2022/12/05 11:33:24;;;;;;;7.60;3.22;;;4.70;99.90;;;;;;5107773;28;20072;-80
2022/12/05 11:35:53;;;;;;;9.23;3.72;;;4.70;99.90;;;;;;5092829;28;20038;-80
2022/12/05 11:38:26;;;;;;;8.32;3.50;;;4.70;99.90;;;;;;5109647;28;20044;-80
2022/12/05 11:41:49;;;;;;;10.27;3.70;;;4.70;99.90;;;;;;5105881;28;20484;-81
2022/12/05 11:44:47;;;;;;;9.10;3.10;;;4.70;99.90;;;;;;5030403;28;20076;-81
2022/12/05 11:47:32;;;;;;;8.52;3.50;;;4.70;99.90;;;;;;5046788;28;20080;-80
2022/12/05 11:50:10;;;;;;;8.75;3.17;;;5.10;99.90;;;;;;5098303;28;20435;-81
2022/12/05 11:52:51;;;;;;;7.80;3.42;;;5.00;99.90;;;;;;5110436;28;20191;-81
2022/12/05 11:55:25;;;;;;;5.82;3.33;;;4.80;99.90;;;;;;5105341;28;20890;-81
2022/12/05 11:57:54;;;;;;;6.47;3.03;;;4.70;99.90;;;;;;5093622;28;20044;-81
2022/12/05 12:00:28;;;;;;;12.88;3.20;;;4.80;99.90;;;;;;5093613;28;20054;-80
2022/12/05 12:03:16;;;;;;;7.72;3.00;;;4.80;99.90;;;;;;5073410;28;20378;-81
2022/12/05 12:05:56;;;;;;;8.38;2.70;;;4.80;99.90;;;;;;5073253;28;20052;-81
2022/12/05 12:08:27;;;;;;;8.77;3.20;;;4.80;99.90;;;;;;5088171;28;20531;-81
2022/12/05 12:11:25;;;;;;;8.02;2.92;;;4.90;99.90;;;;;;5091459;28;20123;-81
2022/12/05 12:14:18;;;;;;;7.30;2.75;;;4.80;99.90;;;;;;5091478;28;20047;-81
2022/12/05 12:17:21;;;;;;;8.13;3.08;;;4.80;99.90;;;;;;5110216;28;20043;-81
2022/12/05 12:20:09;;;;;;;5.15;2.63;;;4.80;99.90;;;;;;5109996;28;20089;-81
2022/12/05 12:22:48;;;;;;;11.38;3.13;;;4.80;99.90;;;;;;5091684;28;20036;-81
2022/12/05 12:25:15;;;;;;;7.47;2.83;;;4.80;99.90;;;;;;5095315;28;20040;-81
2022/12/05 12:28:09;;;;;;;8.70;3.53;;;4.80;99.90;;;;;;5115537;28;20937;-81
2022/12/05 12:30:57;;;;;;;8.27;2.88;;;4.90;99.90;;;;;;5109884;28;20101;-81
2022/12/05 12:33:54;;;;;;;6.47;2.83;;;4.80;99.90;;;;;;5092422;28;20438;-81
2022/12/05 12:36:31;;;;;;;7.22;3.38;;;4.80;99.90;;;;;;5109640;28;20036;-81
2022/12/05 12:39:16;;;;;;;8.98;3.33;;;4.90;99.90;;;;;;5109149;28;20495;-81
2022/12/05 12:42:07;;;;;;;7.60;3.40;;;4.90;99.90;;;;;;5111584;28;20040;-81
2022/12/05 12:44:40;;;;;;;8.95;3.35;;;4.90;99.90;;;;;;5115215;28;20403;-81
2022/12/05 12:47:25;;;;;;;7.15;3.35;;;4.90;99.90;;;;;;5108566;28;20105;-81
2022/12/05 12:50:02;;;;;;;6.72;2.88;;;4.90;99.90;;;;;;5109165;28;20044;-81
2022/12/05 12:52:48;;;;;;;6.97;2.95;;;4.90;99.90;;;;;;5108969;28;20080;-81
2022/12/05 12:55:18;;;;;;;6.57;2.75;;;4.90;99.90;;;;;;5108088;28;20407;-81
2022/12/05 12:57:57;;;;;;;12.45;3.50;;;4.90;99.90;;;;;;5108794;28;20044;-81
2022/12/05 13:01:00;;;;;;;7.90;3.05;;;4.90;99.90;;;;;;5115558;28;20039;-81
2022/12/05 13:03:38;;;;;;;6.55;2.63;;;4.90;99.90;;;;;;5113725;28;21414;-81
2022/12/05 13:06:14;;;;;;;6.55;2.60;;;5.00;99.90;;;;;;5104730;28;20076;-81
2022/12/05 13:08:56;;;;;;;7.10;2.72;;;5.00;99.90;;;;;;5111456;28;20091;-81
2022/12/05 13:11:23;;;;;;;8.40;2.60;;;5.10;99.90;;;;;;5098144;28;20043;-81
2022/12/05 13:13:53;;;;;;;7.90;2.70;;;4.90;99.90;;;;;;5092265;28;20043;-81
2022/12/05 13:16:28;;;;;;;5.15;2.35;;;4.90;99.90;;;;;;5109151;28;20500;-81
2022/12/05 13:18:56;;;;;;;7.50;2.50;;;4.90;99.90;;;;;;5110871;28;20500;-81
2022/12/05 13:21:23;;;;;;;8.48;2.90;;;4.90;99.90;;;;;;5092406;28;20073;-81
2022/12/05 13:23:54;;;;;;;8.18;2.15;;;5.50;99.90;;;;;;5059506;28;20070;-82
2022/12/05 13:26:22;;;;;;;6.03;2.30;;;4.90;99.90;;;;;;5110512;28;20072;-83
2022/12/05 13:28:58;;;;;;;8.70;2.30;;;4.90;99.90;;;;;;5074643;28;20040;-81